Impacts METAR Board
IDs:

KSSF - San Antonio/Stinson, TX, US

Updated at: 0400 UTC 18 Jan 2022
Potential Impact None Slight Moderate High
Time 17/16Z 17/17Z 17/18Z 17/19Z 17/20Z 17/21Z 17/22Z 17/23Z 18/00Z 18/01Z 18/02Z 18/03Z 18/04Z
Temp55 63 66 70 72 74 74 73 67 60 57 55 56
Dewpt24 20 18 20 17 17 17 17 17 19 19 22 27
Altim30.18 30.18 30.16 30.12 30.08 30.06 30.05 30.04 30.03 30.04 30.05 30.07 30.06
VIS10 10 10 10 10 10 10 10 10 10 10 10 10
CIG-- -- -- -- -- -- -- -- -- -- -- -- --
CoverCLRCLRCLRCLRCLRCLRCLRCLRCLRCLRCLRCLRCLR
FltCatVFRVFRVFRVFRVFRVFRVFRVFRVFRVFRVFRVFRVFR
WX--------------------------
WDir025027001801701501501501100160150
WSpd0 5 5 3 4 6 9 9 5 3 0 6 8
WGst-- -- -- -- -- -- -- -- -- -- -- -- --
Raw hourly METARs
KSSF 171553Z 00000KT 10SM CLR 13/M04 A3018 RMK AO2 SLP221 T01281044
KSSF 171653Z 25005KT 10SM CLR 17/M07 A3018 RMK AO2 SLP220 T01721067
KSSF 171753Z 27005KT 10SM CLR 19/M08 A3016 RMK AO2 SLP213 T01891078 10194 21011 58003
KSSF 171853Z VRB03KT 10SM CLR 21/M07 A3012 RMK AO2 SLP198 T02111067 $
KSSF 171953Z 18004KT 10SM CLR 22/M08 A3008 RMK AO2 SLP185 T02221083 $
KSSF 172053Z 17006KT 10SM CLR 23/M08 A3006 RMK AO2 SLP178 T02331083 56032 $
KSSF 172153Z 15009KT 10SM CLR 23/M08 A3005 RMK AO2 SLP175 T02331083 $
KSSF 172253Z 15009KT 10SM CLR 23/M08 A3004 RMK AO2 SLP172 T02281083 $
KSSF 172353Z 15005KT 10SM CLR 19/M08 A3003 RMK AO2 SLP172 T01941083 10233 20189 56009 $
KSSF 180053Z 11003KT 10SM CLR 16/M07 A3004 RMK AO2 SLP175 T01561072 $
KSSF 180153Z 00000KT 10SM CLR 14/M07 A3005 RMK AO2 SLP178 T01391072 $
KSSF 180253Z 16006KT 10SM CLR 13/M06 A3007 RMK AO2 SLP183 T01281056 53012 $
KSSF 180353Z AUTO 15008KT 10SM CLR 13/M03 A3006 RMK AO2 SLP178 T01331028 $